createdAt,value
2023-04-26T00:00:31.862Z,84.77
2023-04-26T00:02:49.442Z,84.99
2023-04-26T00:05:07.735Z,84.98
2023-04-26T00:07:25.402Z,85.32
2023-04-26T00:09:42.506Z,85.36
2023-04-26T00:12:00.739Z,85.59
2023-04-26T00:14:17.972Z,85.60
2023-04-26T00:16:35.185Z,85.24
2023-04-26T00:18:52.481Z,85.54
2023-04-26T00:21:09.727Z,85.77
2023-04-26T00:23:26.807Z,85.88
2023-04-26T00:25:43.848Z,85.83
2023-04-26T00:28:00.858Z,85.55
2023-04-26T00:30:17.940Z,85.65
2023-04-26T00:32:36.070Z,85.21
2023-04-26T00:34:53.113Z,85.48
2023-04-26T00:37:10.118Z,85.30
2023-04-26T00:39:28.364Z,85.70
2023-04-26T00:41:45.462Z,86.13
2023-04-26T00:44:03.738Z,86.01
2023-04-26T00:46:21.085Z,85.74
2023-04-26T00:48:38.478Z,85.54
2023-04-26T00:50:55.577Z,85.98
2023-04-26T00:53:12.591Z,85.65
2023-04-26T00:55:30.768Z,86.14
2023-04-26T00:57:48.052Z,86.02
2023-04-26T01:00:05.034Z,86.02
2023-04-26T01:02:23.288Z,86.03
2023-04-26T01:04:40.540Z,86.38
2023-04-26T01:06:57.747Z,86.53
2023-04-26T01:09:14.762Z,86.84
2023-04-26T01:11:32.031Z,86.48
2023-04-26T01:13:49.102Z,86.51
2023-04-26T01:16:06.086Z,86.32
2023-04-26T01:18:23.048Z,86.26
2023-04-26T01:20:40.320Z,86.08
2023-04-26T01:22:57.349Z,86.37
2023-04-26T01:25:14.326Z,86.35
2023-04-26T01:27:31.616Z,86.58
2023-04-26T01:29:48.655Z,86.42
2023-04-26T01:32:05.894Z,86.46
2023-04-26T01:34:23.131Z,86.78
2023-04-26T01:36:40.477Z,86.75
2023-04-26T01:38:57.537Z,86.56
2023-04-26T01:41:14.512Z,86.51
2023-04-26T01:43:31.715Z,86.60
2023-04-26T01:45:48.812Z,86.86
2023-04-26T01:48:05.871Z,86.95
2023-04-26T01:50:22.874Z,86.76
2023-04-26T01:52:40.647Z,86.61
2023-04-26T01:54:57.881Z,86.56
2023-04-26T01:57:15.097Z,86.42
2023-04-26T01:59:32.122Z,86.22
2023-04-26T02:01:48.992Z,86.25
2023-04-26T02:04:06.334Z,86.73
2023-04-26T02:06:23.442Z,86.82
2023-04-26T02:08:40.712Z,86.38
2023-04-26T02:10:58.501Z,86.25
2023-04-26T02:13:16.854Z,86.49
2023-04-26T02:15:34.157Z,86.58
2023-04-26T02:17:51.270Z,86.75
2023-04-26T02:20:08.957Z,86.73
2023-04-26T02:22:26.292Z,86.65
2023-04-26T02:24:43.350Z,86.44
2023-04-26T02:27:00.258Z,86.63
2023-04-26T02:29:18.154Z,86.65
2023-04-26T02:31:35.690Z,86.60
2023-04-26T02:33:52.685Z,86.70
2023-04-26T02:36:09.686Z,86.92
2023-04-26T02:38:26.521Z,86.43
2023-04-26T02:40:43.536Z,87.06
2023-04-26T02:43:00.553Z,86.77
2023-04-26T02:45:17.582Z,86.48
2023-04-26T02:47:34.701Z,86.65
2023-04-26T02:49:51.741Z,86.61
2023-04-26T02:52:08.964Z,87.07
2023-04-26T02:54:25.969Z,86.37
2023-04-26T02:56:45.130Z,86.44
2023-04-26T02:59:02.111Z,86.87
2023-04-26T03:01:20.355Z,86.75
2023-04-26T03:03:37.604Z,86.91
2023-04-26T03:05:55.051Z,86.54
2023-04-26T03:08:12.363Z,86.45
2023-04-26T03:10:29.470Z,86.66
2023-04-26T03:12:46.706Z,86.79
2023-04-26T03:15:04.218Z,86.57
2023-04-26T03:17:21.318Z,86.80
2023-04-26T03:19:38.294Z,87.54
2023-04-26T03:21:55.287Z,87.79
2023-04-26T03:24:13.522Z,87.16
2023-04-26T03:26:30.864Z,87.38
2023-04-26T03:28:47.949Z,87.38
2023-04-26T03:31:05.010Z,87.26
2023-04-26T03:33:21.974Z,87.25
2023-04-26T03:35:39.235Z,86.72
2023-04-26T03:37:58.583Z,86.81
2023-04-26T03:40:17.087Z,87.32
2023-04-26T03:42:35.113Z,87.56
2023-04-26T03:44:52.078Z,87.83
2023-04-26T03:47:09.087Z,87.68
2023-04-26T03:49:26.325Z,88.17
2023-04-26T03:51:43.593Z,88.11
2023-04-26T03:54:00.869Z,87.59
2023-04-26T03:56:17.855Z,87.50
2023-04-26T03:58:34.911Z,87.85
2023-04-26T04:00:53.172Z,87.78
2023-04-26T04:03:10.660Z,87.38
2023-04-26T04:05:29.163Z,88.17
2023-04-26T04:07:46.514Z,87.25
2023-04-26T04:10:03.512Z,87.41
2023-04-26T04:12:20.641Z,87.03
2023-04-26T04:14:37.864Z,87.22
2023-04-26T04:16:56.325Z,87.40
2023-04-26T04:19:13.305Z,87.75
2023-04-26T04:21:30.677Z,88.02
2023-04-26T04:23:47.881Z,87.85
2023-04-26T04:26:05.135Z,87.67
2023-04-26T04:28:22.424Z,87.79
2023-04-26T04:30:39.552Z,88.09
2023-04-26T04:32:56.797Z,87.84
2023-04-26T04:35:14.077Z,87.55
2023-04-26T04:37:32.103Z,87.71
2023-04-26T04:39:49.360Z,87.32
2023-04-26T04:42:06.403Z,87.64
2023-04-26T04:44:23.742Z,87.49
2023-04-26T04:46:43.299Z,87.33
2023-04-26T04:49:00.396Z,87.46
2023-04-26T04:51:17.397Z,87.64
2023-04-26T04:53:34.689Z,87.30
2023-04-26T04:55:51.752Z,87.78
2023-04-26T04:58:09.796Z,87.67
2023-04-26T05:00:26.780Z,88.18
2023-04-26T05:02:45.393Z,88.06
2023-04-26T05:05:02.655Z,87.86
2023-04-26T05:07:19.769Z,88.32
2023-04-26T05:09:37.844Z,87.97
2023-04-26T05:11:55.193Z,87.61
2023-04-26T05:14:12.211Z,88.44
2023-04-26T05:16:29.301Z,88.55
2023-04-26T05:18:46.581Z,88.13
2023-04-26T05:21:03.870Z,88.05
2023-04-26T05:23:21.203Z,88.06
2023-04-26T05:25:39.576Z,88.51
2023-04-26T05:27:56.971Z,87.81
2023-04-26T05:30:14.279Z,88.48
2023-04-26T05:32:33.731Z,88.25
2023-04-26T05:34:50.660Z,87.41
2023-04-26T05:37:08.602Z,88.05
2023-04-26T05:39:25.662Z,87.73
2023-04-26T05:41:43.224Z,87.58
2023-04-26T05:44:00.323Z,87.80
2023-04-26T05:46:17.441Z,87.42
2023-04-26T05:48:35.686Z,87.23
2023-04-26T05:50:53.016Z,87.25
2023-04-26T05:53:10.101Z,86.92
2023-04-26T05:55:27.068Z,86.95
2023-04-26T05:57:45.318Z,86.06
2023-04-26T06:00:03.366Z,86.89
2023-04-26T06:02:20.406Z,86.41
2023-04-26T06:04:37.969Z,86.39
2023-04-26T06:06:55.376Z,86.50
2023-04-26T06:09:12.521Z,86.51
2023-04-26T06:11:29.497Z,86.37
2023-04-26T06:13:46.780Z,86.12
2023-04-26T06:16:04.145Z,85.87
2023-04-26T06:18:21.184Z,85.04
2023-04-26T06:20:38.122Z,84.70
2023-04-26T06:22:55.090Z,84.99
2023-04-26T06:25:12.279Z,84.75
2023-04-26T06:27:29.331Z,84.23
2023-04-26T06:29:46.371Z,84.48
2023-04-26T06:32:03.390Z,83.31
2023-04-26T06:34:20.431Z,82.62
2023-04-26T06:36:37.454Z,83.30
2023-04-26T06:38:54.767Z,82.23
2023-04-26T06:41:11.694Z,82.40
2023-04-26T06:43:28.942Z,81.90
2023-04-26T06:45:46.173Z,80.94
2023-04-26T06:48:03.262Z,82.41
2023-04-26T06:50:21.299Z,81.81
2023-04-26T06:52:38.577Z,81.56
2023-04-26T06:54:57.541Z,80.79
2023-04-26T06:57:15.188Z,80.98
2023-04-26T06:59:32.117Z,81.18
2023-04-26T07:01:49.176Z,81.63
2023-04-26T07:04:06.555Z,80.76
2023-04-26T07:06:23.622Z,81.55
2023-04-26T07:08:40.860Z,81.86
2023-04-26T07:10:58.034Z,81.31
2023-04-26T07:13:15.336Z,81.40
2023-04-26T07:15:32.392Z,81.34
2023-04-26T07:17:49.430Z,80.16
2023-04-26T07:20:06.471Z,79.48
2023-04-26T07:22:23.499Z,78.96
2023-04-26T07:24:40.865Z,78.73
2023-04-26T07:26:58.178Z,80.12
2023-04-26T07:29:15.143Z,77.87
2023-04-26T07:31:32.084Z,78.28
2023-04-26T07:33:50.741Z,76.86
2023-04-26T07:36:08.056Z,75.95
2023-04-26T07:38:25.323Z,75.02
2023-04-26T07:40:43.546Z,75.34
2023-04-26T07:43:00.470Z,74.25
2023-04-26T07:45:18.664Z,73.78
2023-04-26T07:47:36.006Z,73.04
2023-04-26T07:49:53.304Z,71.33
2023-04-26T07:52:10.305Z,68.13
2023-04-26T07:54:28.268Z,67.84
2023-04-26T07:56:45.503Z,68.46
2023-04-26T07:59:02.469Z,67.29
2023-04-26T08:01:19.506Z,66.92
2023-04-26T08:03:36.708Z,65.06
2023-04-26T08:05:54.247Z,65.07
2023-04-26T08:08:11.433Z,63.19
2023-04-26T08:10:28.721Z,62.63
2023-04-26T08:12:45.751Z,63.47
2023-04-26T08:15:02.995Z,61.19
2023-04-26T08:17:19.827Z,59.22
2023-04-26T08:19:37.070Z,61.13
2023-04-26T08:21:54.300Z,60.09
2023-04-26T08:24:11.284Z,58.88
2023-04-26T08:26:28.328Z,60.29
2023-04-26T08:28:45.665Z,59.15
2023-04-26T08:31:03.003Z,58.90
2023-04-26T08:33:20.914Z,57.77
2023-04-26T08:35:39.209Z,56.73
2023-04-26T08:37:56.240Z,58.40
2023-04-26T08:40:13.192Z,57.87
2023-04-26T08:42:30.215Z,57.18
2023-04-26T08:44:47.461Z,57.68
2023-04-26T08:47:04.509Z,57.26
2023-04-26T08:49:21.526Z,56.85
2023-04-26T08:51:38.696Z,56.96
2023-04-26T08:53:55.692Z,55.81
2023-04-26T08:56:12.934Z,55.54
2023-04-26T08:58:29.977Z,54.85
2023-04-26T09:00:46.881Z,54.70
2023-04-26T09:03:04.260Z,54.30
2023-04-26T09:05:21.401Z,52.77
2023-04-26T09:07:38.573Z,51.79
2023-04-26T09:09:56.545Z,53.04
2023-04-26T09:12:13.604Z,52.97
2023-04-26T09:14:30.862Z,51.17
2023-04-26T09:16:48.860Z,51.42
2023-04-26T09:19:05.882Z,51.80
2023-04-26T09:21:23.725Z,53.36
2023-04-26T09:23:40.684Z,52.99
2023-04-26T09:25:57.600Z,53.68
2023-04-26T09:28:14.627Z,54.02
2023-04-26T09:30:31.526Z,51.81
2023-04-26T09:32:48.494Z,52.87
2023-04-26T09:35:05.762Z,52.31
2023-04-26T09:37:22.904Z,52.20
2023-04-26T09:39:40.167Z,50.61
2023-04-26T09:41:57.136Z,52.33
2023-04-26T09:44:14.092Z,52.72
2023-04-26T09:46:30.970Z,53.02
2023-04-26T09:48:48.465Z,50.78
2023-04-26T09:51:05.695Z,51.98
2023-04-26T09:53:22.744Z,50.65
2023-04-26T09:55:41.002Z,51.52
2023-04-26T09:57:58.114Z,50.75
2023-04-26T10:00:15.419Z,50.55
2023-04-26T10:02:32.510Z,50.24
2023-04-26T10:04:49.822Z,50.36
2023-04-26T10:07:07.765Z,49.73
2023-04-26T10:09:25.132Z,49.39
2023-04-26T10:11:42.096Z,49.70
2023-04-26T10:13:59.055Z,50.34
2023-04-26T10:16:16.118Z,49.03
2023-04-26T10:18:33.235Z,49.17
2023-04-26T10:20:50.239Z,49.42
2023-04-26T10:23:07.270Z,47.81
2023-04-26T10:25:24.508Z,49.90
2023-04-26T10:27:41.767Z,51.07
2023-04-26T10:29:59.785Z,50.19
2023-04-26T10:32:17.289Z,51.08
2023-04-26T10:34:34.849Z,49.90
2023-04-26T10:36:52.147Z,49.94
2023-04-26T10:39:10.160Z,51.62
2023-04-26T10:41:27.361Z,52.41
2023-04-26T10:43:45.597Z,50.58
2023-04-26T10:46:02.625Z,50.49
2023-04-26T10:48:19.763Z,48.96
2023-04-26T10:50:36.906Z,49.21
2023-04-26T10:52:54.145Z,45.65
2023-04-26T10:55:11.501Z,46.88
2023-04-26T10:57:28.537Z,45.99
2023-04-26T10:59:54.264Z,46.94
2023-04-26T11:02:12.077Z,46.74
2023-04-26T11:04:29.670Z,47.01
2023-04-26T11:06:46.838Z,46.36
2023-04-26T11:09:04.835Z,46.36
2023-04-26T11:11:21.840Z,46.76
2023-04-26T11:13:38.880Z,44.79
2023-04-26T11:15:55.958Z,45.29
2023-04-26T11:18:13.245Z,46.54
2023-04-26T11:20:30.189Z,46.72
2023-04-26T11:22:47.516Z,47.40
2023-04-26T11:25:05.106Z,45.58
2023-04-26T11:27:22.086Z,46.28
2023-04-26T11:29:39.317Z,47.48
2023-04-26T11:31:56.518Z,46.78
2023-04-26T11:34:13.548Z,46.92
2023-04-26T11:36:30.555Z,46.29
2023-04-26T11:38:47.499Z,46.04
2023-04-26T11:41:04.561Z,45.10
2023-04-26T11:43:21.920Z,45.64
2023-04-26T11:45:38.973Z,43.86
2023-04-26T11:47:56.078Z,42.63
2023-04-26T11:50:13.475Z,43.84
2023-04-26T11:52:31.735Z,41.46
2023-04-26T11:54:48.609Z,40.77
2023-04-26T11:57:05.627Z,42.58
2023-04-26T11:59:22.686Z,41.27
2023-04-26T12:01:39.750Z,42.74
2023-04-26T12:03:57.042Z,44.13
2023-04-26T12:06:14.090Z,42.27
2023-04-26T12:08:31.220Z,43.40
2023-04-26T12:10:48.260Z,41.67
2023-04-26T12:13:05.534Z,41.81
2023-04-26T12:15:22.616Z,40.82
2023-04-26T12:17:40.006Z,41.86
2023-04-26T12:19:58.348Z,41.81
2023-04-26T12:22:15.356Z,41.04
2023-04-26T12:24:32.602Z,40.58
2023-04-26T12:26:49.905Z,43.33
2023-04-26T12:29:06.892Z,42.98
2023-04-26T12:31:23.953Z,43.80
2023-04-26T12:33:41.069Z,42.39
2023-04-26T12:35:58.048Z,43.13
2023-04-26T12:38:15.395Z,39.37
2023-04-26T12:40:33.467Z,40.37
2023-04-26T12:42:50.474Z,40.01
2023-04-26T12:45:07.892Z,40.44
2023-04-26T12:47:24.854Z,40.60
2023-04-26T12:49:43.083Z,40.19
2023-04-26T12:52:00.334Z,38.72
2023-04-26T12:54:17.617Z,40.38
2023-04-26T12:56:34.617Z,40.16
2023-04-26T12:58:51.602Z,39.54
2023-04-26T13:01:08.850Z,40.69
2023-04-26T13:03:26.042Z,40.98
2023-04-26T13:05:43.069Z,40.81
2023-04-26T13:08:00.146Z,40.77
2023-04-26T13:10:17.204Z,39.41
2023-04-26T13:12:34.527Z,40.24
2023-04-26T13:14:51.570Z,40.18
2023-04-26T13:17:08.789Z,39.96
2023-04-26T13:19:25.969Z,39.93
2023-04-26T13:21:43.046Z,40.89
2023-04-26T13:24:00.992Z,41.33
2023-04-26T13:26:18.938Z,41.42
2023-04-26T13:28:35.769Z,42.70
2023-04-26T13:30:52.784Z,42.10
2023-04-26T13:33:09.792Z,43.15
2023-04-26T13:35:27.108Z,40.84
2023-04-26T13:37:44.134Z,43.17
2023-04-26T13:40:02.583Z,41.07
2023-04-26T13:42:19.879Z,40.20
2023-04-26T13:44:36.978Z,40.77
2023-04-26T13:46:53.961Z,38.68
2023-04-26T13:49:10.900Z,41.12
2023-04-26T13:51:28.125Z,40.52
2023-04-26T13:53:45.373Z,41.30
2023-04-26T13:56:02.312Z,41.82
2023-04-26T13:58:20.375Z,40.36
2023-04-26T14:00:37.391Z,42.37
2023-04-26T14:02:54.453Z,42.55
2023-04-26T14:05:11.739Z,39.67
2023-04-26T14:07:28.741Z,39.23
2023-04-26T14:09:45.770Z,39.44
2023-04-26T14:12:08.607Z,38.93
2023-04-26T14:14:26.227Z,39.36
2023-04-26T14:16:43.323Z,38.90
2023-04-26T14:19:00.457Z,39.00
2023-04-26T14:21:18.490Z,39.29
2023-04-26T14:23:35.347Z,39.65
2023-04-26T14:25:53.270Z,39.38
2023-04-26T14:28:10.303Z,38.96
2023-04-26T14:30:28.598Z,39.90
2023-04-26T14:32:45.691Z,39.62
2023-04-26T14:35:02.597Z,39.09
2023-04-26T14:37:19.690Z,40.50
2023-04-26T14:39:36.690Z,38.84
2023-04-26T14:41:53.961Z,39.54
2023-04-26T14:44:12.258Z,41.28
2023-04-26T14:46:29.541Z,39.55
2023-04-26T14:48:46.956Z,38.83
2023-04-26T14:51:03.952Z,40.02
2023-04-26T14:53:20.929Z,38.76
2023-04-26T14:55:38.174Z,37.67
2023-04-26T14:57:55.111Z,38.79
2023-04-26T15:00:13.316Z,38.89
2023-04-26T15:02:31.671Z,36.96
2023-04-26T15:04:48.962Z,37.38
2023-04-26T15:07:06.336Z,37.65
2023-04-26T15:09:23.395Z,39.69
2023-04-26T15:11:40.473Z,36.91
2023-04-26T15:13:57.572Z,37.32
2023-04-26T15:16:14.579Z,37.34
2023-04-26T15:18:31.951Z,37.12
2023-04-26T15:20:49.091Z,39.08
2023-04-26T15:23:06.274Z,38.29
2023-04-26T15:25:23.340Z,38.87
2023-04-26T15:27:40.341Z,40.74
2023-04-26T15:29:57.755Z,39.21
2023-04-26T15:32:15.083Z,39.56
2023-04-26T15:34:32.120Z,40.27
2023-04-26T15:36:48.974Z,39.32
2023-04-26T15:39:06.243Z,38.06
2023-04-26T15:41:23.572Z,37.68
2023-04-26T15:43:40.889Z,38.81
2023-04-26T15:45:58.172Z,38.48
2023-04-26T15:48:15.162Z,41.04
2023-04-26T15:50:33.565Z,40.68
2023-04-26T15:52:50.478Z,40.12
2023-04-26T15:55:07.565Z,40.52
2023-04-26T15:57:26.958Z,38.24
2023-04-26T15:59:44.212Z,39.39
2023-04-26T16:02:01.598Z,39.49
2023-04-26T16:04:18.717Z,40.09
2023-04-26T16:06:35.862Z,39.42
2023-04-26T16:08:53.143Z,41.02
2023-04-26T16:11:10.052Z,40.07
2023-04-26T16:13:27.037Z,40.19
2023-04-26T16:15:43.979Z,41.84
2023-04-26T16:18:02.267Z,40.85
2023-04-26T16:20:19.497Z,42.32
2023-04-26T16:22:36.512Z,42.38
2023-04-26T16:24:53.556Z,41.60
2023-04-26T16:27:11.622Z,42.23
2023-04-26T16:29:28.517Z,42.26
2023-04-26T16:31:45.708Z,42.10
2023-04-26T16:34:02.894Z,41.60
2023-04-26T16:36:19.920Z,41.33
2023-04-26T16:38:37.043Z,43.29
2023-04-26T16:40:54.052Z,41.40
2023-04-26T16:43:11.011Z,42.47
2023-04-26T16:45:28.228Z,41.60
2023-04-26T16:47:45.439Z,42.88
2023-04-26T16:50:02.839Z,43.58
2023-04-26T16:52:20.128Z,44.30
2023-04-26T16:54:38.034Z,43.39
2023-04-26T16:56:55.306Z,42.30
2023-04-26T16:59:12.350Z,43.07
2023-04-26T17:01:29.422Z,42.38
2023-04-26T17:03:46.905Z,43.74
2023-04-26T17:06:04.252Z,42.89
2023-04-26T17:08:22.550Z,43.94
2023-04-26T17:10:39.879Z,43.29
2023-04-26T17:12:56.965Z,42.67
2023-04-26T17:15:15.296Z,43.37
2023-04-26T17:17:32.382Z,43.20
2023-04-26T17:19:49.520Z,43.74
2023-04-26T17:22:06.743Z,44.26
2023-04-26T17:24:23.991Z,43.12
2023-04-26T17:26:41.274Z,44.06
2023-04-26T17:28:58.365Z,45.63
2023-04-26T17:31:15.615Z,45.80
2023-04-26T17:33:33.666Z,44.10
2023-04-26T17:35:50.600Z,46.53
2023-04-26T17:38:07.859Z,46.68
2023-04-26T17:40:25.161Z,46.67
2023-04-26T17:42:43.412Z,46.31
2023-04-26T17:45:00.461Z,46.70
2023-04-26T17:47:17.547Z,44.64
2023-04-26T17:49:34.545Z,45.00
2023-04-26T17:51:51.593Z,45.93
2023-04-26T17:54:09.615Z,46.79
2023-04-26T17:56:26.714Z,46.07
2023-04-26T17:58:43.769Z,46.69
2023-04-26T18:01:01.108Z,48.86
2023-04-26T18:03:18.434Z,49.28
2023-04-26T18:05:35.969Z,51.56
2023-04-26T18:07:52.946Z,53.54
2023-04-26T18:10:10.166Z,52.68
2023-04-26T18:12:28.235Z,52.54
2023-04-26T18:14:45.571Z,52.79
2023-04-26T18:17:02.538Z,53.37
2023-04-26T18:19:19.598Z,51.91
2023-04-26T18:21:36.924Z,51.94
2023-04-26T18:23:54.265Z,53.09
2023-04-26T18:26:11.290Z,52.30
2023-04-26T18:28:28.314Z,52.01
2023-04-26T18:30:45.554Z,52.18
2023-04-26T18:33:03.934Z,52.80
2023-04-26T18:35:20.972Z,52.18
2023-04-26T18:37:38.007Z,52.27
2023-04-26T18:39:55.033Z,52.05
2023-04-26T18:42:12.378Z,52.71
2023-04-26T18:44:29.380Z,52.77
2023-04-26T18:46:46.532Z,53.03
2023-04-26T18:49:03.942Z,52.83
2023-04-26T18:51:21.218Z,53.48
2023-04-26T18:53:38.246Z,55.15
2023-04-26T18:55:55.331Z,55.58
2023-04-26T18:58:12.333Z,56.06
2023-04-26T19:00:29.609Z,57.26
2023-04-26T19:02:46.753Z,57.68
2023-04-26T19:05:04.145Z,58.30
2023-04-26T19:07:21.248Z,58.20
2023-04-26T19:09:50.536Z,59.12
2023-04-26T19:12:10.999Z,59.14
2023-04-26T19:14:28.927Z,60.95
2023-04-26T19:16:45.973Z,60.52
2023-04-26T19:19:03.520Z,60.91
2023-04-26T19:21:20.545Z,61.32
2023-04-26T19:23:37.581Z,60.85
2023-04-26T19:25:54.613Z,61.24
2023-04-26T19:28:11.540Z,61.74
2023-04-26T19:30:28.556Z,60.57
2023-04-26T19:32:45.849Z,60.64
2023-04-26T19:35:02.856Z,61.82
2023-04-26T19:37:19.984Z,61.58
2023-04-26T19:39:37.164Z,61.17
2023-04-26T19:41:54.077Z,61.06
2023-04-26T19:44:10.994Z,62.41
2023-04-26T19:46:28.373Z,62.59
2023-04-26T19:48:45.665Z,64.35
2023-04-26T19:51:02.696Z,64.08
2023-04-26T19:53:19.612Z,64.05
2023-04-26T19:55:36.683Z,64.45
2023-04-26T19:57:54.632Z,65.70
2023-04-26T20:00:11.651Z,65.45
2023-04-26T20:02:28.889Z,65.16
2023-04-26T20:04:46.418Z,65.45
2023-04-26T20:07:04.353Z,64.71
2023-04-26T20:09:21.241Z,63.97
2023-04-26T20:11:39.127Z,64.45
2023-04-26T20:13:56.193Z,65.55
2023-04-26T20:16:13.148Z,66.30
2023-04-26T20:18:30.488Z,67.06
2023-04-26T20:20:47.497Z,67.05
2023-04-26T20:23:05.763Z,67.06
2023-04-26T20:25:22.789Z,68.09
2023-04-26T20:27:40.102Z,67.56
2023-04-26T20:29:57.136Z,68.79
2023-04-26T20:32:14.389Z,69.34
2023-04-26T20:34:31.632Z,69.24
2023-04-26T20:36:48.696Z,68.30
2023-04-26T20:39:07.092Z,69.40
2023-04-26T20:41:24.296Z,68.94
2023-04-26T20:43:42.210Z,69.69
2023-04-26T20:45:59.579Z,70.36
2023-04-26T20:48:16.876Z,70.66
2023-04-26T20:50:36.405Z,70.87
2023-04-26T20:52:53.541Z,71.41
2023-04-26T20:55:10.420Z,71.21
2023-04-26T20:57:27.306Z,71.10
2023-04-26T20:59:44.653Z,71.33
2023-04-26T21:02:03.088Z,71.17
2023-04-26T21:04:20.416Z,72.03
2023-04-26T21:06:38.763Z,71.49
2023-04-26T21:08:56.004Z,72.13
2023-04-26T21:11:12.986Z,72.28
2023-04-26T21:13:30.321Z,72.62
2023-04-26T21:15:47.487Z,73.26
2023-04-26T21:18:04.540Z,73.39
2023-04-26T21:20:21.651Z,73.54
2023-04-26T21:22:38.900Z,73.48
2023-04-26T21:24:56.224Z,73.34
2023-04-26T21:27:14.420Z,73.41
2023-04-26T21:29:31.655Z,73.54
2023-04-26T21:31:48.705Z,73.77
2023-04-26T21:34:05.733Z,74.11
2023-04-26T21:36:24.033Z,74.23
2023-04-26T21:38:41.104Z,74.11
2023-04-26T21:40:58.447Z,73.96
2023-04-26T21:43:16.368Z,74.09
2023-04-26T21:45:33.355Z,74.36
2023-04-26T21:47:50.541Z,74.40
2023-04-26T21:50:07.684Z,74.23
2023-04-26T21:52:24.599Z,74.89
2023-04-26T21:54:41.938Z,75.32
2023-04-26T21:56:58.887Z,75.36
2023-04-26T21:59:16.209Z,75.95
2023-04-26T22:01:33.350Z,75.52
2023-04-26T22:03:50.557Z,75.73
2023-04-26T22:06:07.586Z,75.49
2023-04-26T22:08:24.652Z,75.98
2023-04-26T22:10:41.968Z,75.94
2023-04-26T22:12:58.952Z,76.00
2023-04-26T22:15:16.251Z,75.83
2023-04-26T22:17:33.299Z,76.70
2023-04-26T22:19:50.394Z,76.33
2023-04-26T22:22:07.704Z,76.66
2023-04-26T22:24:24.786Z,76.74
2023-04-26T22:26:41.828Z,76.91
2023-04-26T22:28:58.833Z,77.11
2023-04-26T22:31:16.167Z,77.62
2023-04-26T22:33:33.102Z,77.34
2023-04-26T22:35:51.193Z,77.84
2023-04-26T22:38:08.450Z,77.71
2023-04-26T22:40:25.708Z,77.31
2023-04-26T22:42:43.321Z,77.17
2023-04-26T22:45:00.412Z,77.66
2023-04-26T22:47:17.356Z,78.27
2023-04-26T22:49:34.452Z,77.77
2023-04-26T22:52:04.321Z,78.53
2023-04-26T22:54:26.729Z,78.24
2023-04-26T22:56:43.954Z,77.56
2023-04-26T22:59:01.055Z,78.60
2023-04-26T23:01:19.009Z,78.05
2023-04-26T23:03:37.508Z,77.88
2023-04-26T23:05:55.621Z,77.97
2023-04-26T23:08:12.664Z,78.66
2023-04-26T23:10:29.949Z,78.95
2023-04-26T23:12:47.225Z,80.00
2023-04-26T23:15:05.428Z,79.08
2023-04-26T23:17:22.620Z,79.49
2023-04-26T23:19:39.554Z,79.13
2023-04-26T23:21:57.774Z,80.01
2023-04-26T23:24:15.098Z,79.79
2023-04-26T23:26:32.356Z,79.96
2023-04-26T23:28:49.824Z,79.85
2023-04-26T23:31:06.956Z,79.05
2023-04-26T23:33:23.987Z,80.31
2023-04-26T23:35:40.980Z,80.24
2023-04-26T23:37:58.300Z,80.20
2023-04-26T23:40:16.356Z,79.42
2023-04-26T23:42:33.366Z,80.24
2023-04-26T23:44:51.425Z,80.38
2023-04-26T23:47:08.369Z,80.39
2023-04-26T23:49:25.734Z,79.52
2023-04-26T23:51:42.676Z,80.46
2023-04-26T23:54:00.023Z,80.01
2023-04-26T23:56:17.334Z,80.15
2023-04-26T23:58:34.390Z,80.51
